NCAR-RAP Real-Time Weather Data

Output produced by METARs form (14 October 2019  23:46 UTC)
found at http://weather.rap.ucar.edu/surface/
 
KPHL 142254Z 28008KT 10SM CLR 22/02 A2997 RMK AO2 SLP147 T02220022 $
KPHL 142154Z 28010KT 10SM CLR 23/02 A2995 RMK AO2 SLP141 T02280022 $
KPHL 142054Z 26014G18KT 10SM CLR 23/03 A2993 RMK AO2 SLP135 T02330028 56013 $
KPHL 141954Z 29007KT 10SM CLR 23/04 A2993 RMK AO2 SLP136 T02280039 $
KPHL 141854Z 25010G19KT 10SM CLR 23/04 A2995 RMK AO2 SLP142 T02330044 $
KPHL 141754Z 26011G16KT 10SM CLR 22/04 A2997 RMK AO2 SLP148 T02220044 10222 20156 56019 $
KPHL 141654Z 25010KT 10SM FEW045 FEW260 21/08 A2999 RMK AO2 SLP155 T02060083 $
KPHL 141554Z 27007KT 10SM FEW032 FEW260 19/10 A3001 RMK AO2 SLP161 T01940100 $
KPHL 141454Z 20007KT 10SM FEW022 17/11 A3003 RMK AO2 SLP167 T01720111 50006 $
KPHL 141354Z 23005KT 10SM FEW018 17/12 A3003 RMK AO2 SLP168 T01720117 $
KPHL 141309Z 27005KT 10SM SCT017 16/12 A3002 RMK AO2 T01610117 $
KPHL 141254Z 29007KT 10SM FEW012 BKN018 16/12 A3002 RMK AO2 SLP167 T01560117 $
KPHL 141154Z 00000KT 7SM SCT008 OVC019 16/13 A3001 RMK AO2 SLP161 70001 T01560128 10156 20144 53014 $
KPHL 141144Z VRB03KT 7SM SCT008 OVC019 16/13 A3000 RMK AO2 T01560133 $
KPHL 141105Z 00000KT 10SM BKN007 OVC019 15/13 A3000 RMK AO2 T01500133 $
KPHL 141054Z 00000KT 10SM OVC006 15/13 A3000 RMK AO2 SLP158 T01500133 $
KPHL 141020Z 00000KT 10SM BKN006 OVC020 15/13 A2998 RMK AO2 T01500128 $
KPHL 140954Z 00000KT 10SM OVC007 15/13 A2997 RMK AO2 SLP148 T01500128 $
KPHL 140947Z 00000KT 10SM OVC007 15/13 A2997 RMK AO2 T01500128 $
KPHL 140919Z 00000KT 6SM BR OVC007 15/13 A2997 RMK AO2 T01500128 $
KPHL 140854Z 00000KT 6SM BR BKN006 OVC023 14/13 A2997 RMK AO2 SLP147 T01440128 56009 $
KPHL 140837Z 03004KT 5SM BR BKN006 OVC020 14/13 A2996 RMK AO2 T01440128 $
KPHL 140754Z 05004KT 5SM BR OVC007 14/13 A2997 RMK AO2 SLP148 T01440128 $
KPHL 140654Z 03005KT 5SM BR OVC007 15/13 A2997 RMK AO2 SLP148 T01500133 $
KPHL 140554Z 04004KT 6SM BR BKN007 OVC012 15/13 A2999 RMK AO2 SLP156 60000 T01500128 10156 20139 58011 $
KPHL 140454Z 03004KT 6SM BR BKN008 OVC013 15/13 A3001 RMK AO2 SLP161 T01500128 402060100 $
KPHL 140354Z 03004KT 6SM BR OVC008 14/13 A3002 RMK AO2 RAB37E54 SLP164 P0000 T01440128 $
KPHL 140350Z 04006KT 6SM -RA BR OVC008 14/13 A3001 RMK AO2 RAB37 P0000 $
KPHL 140315Z 02004KT 8SM BKN009 OVC015 14/13 A3002 RMK AO2 T01440128 $
KPHL 140254Z 03004KT 6SM BR BKN010 OVC016 14/12 A3003 RMK AO2 DZB03E48 SLP167 P0000 60000 T01440122 58006 $
KPHL 140248Z 04009KT 6SM BR BKN010 OVC016 14/12 A3002 RMK AO2 DZB03E48 P0000 $
KPHL 140219Z 06005KT 4SM -DZ BR OVC014 14/13 A3003 RMK AO2 DZB03 P0000 T01440128 $
KPHL 140210Z 07004KT 4SM -DZ BR OVC015 14/13 A3004 RMK AO2 DZB03 P0000 T01440128 VISNO W $
KPHL 140203Z 08005KT 6SM -DZ BR OVC018 14/12 A3003 RMK AO2 DZB03 P0000 T01440122 $
KPHL 140154Z 09004KT 10SM OVC021 14/12 A3003 RMK AO2 RAB23E36 SLP170 P0000 T01440122 $
KPHL 140136Z 07004KT 10SM OVC021 14/12 A3003 RMK AO2 RAB23E36 P0000 T01440122 $
KPHL 140123Z 11006KT 9SM -RA SCT016 OVC021 15/12 A3004 RMK AO2 RAB23 P0000 T01500122 $
KPHL 140054Z 12003KT 10SM OVC031 16/11 A3004 RMK AO2 SLP172 T01560111 $
KPHL 132354Z 16004KT 10SM OVC033 15/12 A3004 RMK AO2 RAB01E27 SLP173 P0001 60001 T01500117 10206 20150 53001 $
KPHL 132254Z 16009KT 10SM BKN041 OVC250 17/11 A3004 RMK AO2 RAB37E50 SLP172 P0000 T01670106 $
KPHL 132154Z 15008KT 10SM BKN041 OVC250 18/09 A3004 RMK AO2 SLP171 T01830089 $
KPHL 132054Z 13007KT 10SM SCT049 BKN100 BKN250 19/07 A3004 RMK AO2 SLP172 T01890072 56014
KPHL 131954Z 10005KT 10SM BKN055 BKN250 21/08 A3005 RMK AO2 SLP174 T02060083
KPHL 131854Z VRB03KT 10SM BKN055 BKN250 19/07 A3006 RMK AO2 SLP180 T01940072
KPHL 131754Z 00000KT 10SM BKN060 BKN070 BKN250 18/07 A3008 RMK AO2 SLP186 T01830072 10189 20111 58015
KPHL 131654Z 00000KT 10SM FEW070 BKN095 BKN250 18/07 A3011 RMK AO2 SLP195 T01780067
KPHL 131554Z 06004KT 10SM SCT080 BKN250 17/07 A3012 RMK AO2 SLP198 T01670067
KPHL 131454Z 05005KT 10SM BKN080 16/06 A3013 RMK AO2 SLP201 T01560061 50002
KPHL 131354Z 02006KT 10SM SCT085 OVC100 14/06 A3014 RMK AO2 SLP206 T01390056 $
KPHL 131254Z 34006KT 10SM FEW050 SCT095 BKN250 BKN300 12/03 A3014 RMK SLP205 T01220033
KPHL 131154Z 36005KT 10SM SCT050 SCT250 BKN300 11/03 A3012 RMK SLP199 T01110028 10144 20100 53015
KPHL 131054Z 36005KT 10SM FEW050 SCT300 11/03 A3010 RMK AO2 SLP193 T01060028 $
KPHL 130954Z 35007KT 10SM SCT050 SCT300 11/03 A3008 RMK AO2 SLP186 T01060033 $
KPHL 130854Z 33008KT 10SM BKN050 12/04 A3008 RMK AO2 SLP185 T01170039 53010 $
KPHL 130754Z 34007KT 10SM CLR 12/05 A3006 RMK AO2 SLP178 T01170050 $
KPHL 130654Z 33009KT 10SM SCT060 13/06 A3006 RMK AO2 SLP177 T01280061 $
KPHL 130554Z 32008KT 10SM BKN055 14/08 A3005 RMK AO2 SLP174 60000 T01440078 10183 20144 53007 $
KPHL 130454Z 31009KT 10SM CLR 16/08 A3004 RMK AO2 SLP172 T01560083 402110106 $
KPHL 130354Z 30006KT 10SM FEW120 16/09 A3003 RMK AO2 SLP167 T01610094 $
KPHL 130254Z 27005KT 10SM SCT120 17/09 A3003 RMK AO2 SLP168 60000 T01670094 51011 $
KPHL 130154Z 28007KT 10SM FEW095 SCT110 17/09 A3002 RMK SLP166 T01720094
KPHL 130054Z 27007KT 10SM BKN100 BKN120 18/09 A3001 RMK AO2 RAE07 SLP163 P0000 T01780094 $
KPHL 122354Z 31004KT 10SM -RA BKN090 BKN120 BKN150 19/09 A2999 RMK AO2 RAB51 SLP156 P0000 60000 T01890094 10211 20189 53013 $